createdAt,value
2019-03-18T00:00:59.499Z,29.30
2019-03-18T00:03:37.180Z,29.40
2019-03-18T00:06:17.445Z,29.30
2019-03-18T00:08:55.727Z,29.40
2019-03-18T00:11:34.697Z,29.40
2019-03-18T00:14:12.592Z,29.50
2019-03-18T00:16:50.866Z,29.70
2019-03-18T00:19:29.673Z,29.70
2019-03-18T00:22:07.953Z,29.80
2019-03-18T00:24:46.488Z,29.90
2019-03-18T00:27:26.168Z,29.90
2019-03-18T00:30:04.909Z,30.20
2019-03-18T00:32:43.004Z,30.00
2019-03-18T00:35:27.564Z,29.90
2019-03-18T00:38:06.520Z,30.20
2019-03-18T00:40:44.575Z,30.20
2019-03-18T00:43:22.798Z,30.20
2019-03-18T00:46:02.136Z,30.40
2019-03-18T00:48:42.205Z,30.50
2019-03-18T00:51:23.379Z,30.50
2019-03-18T00:54:01.963Z,30.70
2019-03-18T00:56:42.798Z,30.80
2019-03-18T00:59:21.504Z,30.80
2019-03-18T01:01:59.552Z,30.70
2019-03-18T01:04:38.641Z,30.70
2019-03-18T01:07:16.516Z,30.60
2019-03-18T01:09:55.696Z,30.80
2019-03-18T01:12:35.946Z,30.80
2019-03-18T01:15:26.844Z,30.80
2019-03-18T01:17:54.751Z,30.80
2019-03-18T01:20:35.640Z,31.10
2019-03-18T01:23:12.127Z,31.00
2019-03-18T01:25:51.459Z,31.10
2019-03-18T01:28:29.577Z,31.10
2019-03-18T01:31:07.897Z,31.40
2019-03-18T01:33:45.788Z,31.40
2019-03-18T01:36:24.013Z,31.50
2019-03-18T01:39:18.838Z,31.80
2019-03-18T01:41:59.925Z,31.90
2019-03-18T01:44:37.726Z,32.00
2019-03-18T01:47:16.836Z,31.70
2019-03-18T01:49:55.059Z,31.70
2019-03-18T01:52:34.234Z,31.90
2019-03-18T01:55:12.056Z,32.10
2019-03-18T01:57:50.577Z,32.20
2019-03-18T02:00:29.607Z,32.00
2019-03-18T02:03:08.507Z,32.30
2019-03-18T02:05:46.596Z,32.40
2019-03-18T02:08:25.080Z,32.30
2019-03-18T02:11:02.482Z,32.20
2019-03-18T02:13:41.207Z,32.40
2019-03-18T02:16:19.680Z,32.50
2019-03-18T02:19:00.182Z,32.50
2019-03-18T02:21:38.133Z,32.60
2019-03-18T02:24:17.312Z,32.80
2019-03-18T02:26:55.662Z,32.80
2019-03-18T02:29:34.825Z,32.90
2019-03-18T02:32:13.555Z,33.00
2019-03-18T02:34:52.854Z,32.90
2019-03-18T02:37:31.249Z,32.50
2019-03-18T02:40:09.092Z,32.50
2019-03-18T02:42:47.529Z,33.00
2019-03-18T02:45:27.187Z,32.70
2019-03-18T02:48:07.224Z,32.80
2019-03-18T02:50:46.842Z,32.90
2019-03-18T02:53:31.819Z,33.40
2019-03-18T02:56:26.458Z,33.60
2019-03-18T02:59:11.603Z,34.10
2019-03-18T03:01:59.267Z,33.40
2019-03-18T03:04:41.279Z,33.40
2019-03-18T03:07:23.855Z,33.60
2019-03-18T03:10:12.827Z,33.70
2019-03-18T03:12:54.767Z,33.40
2019-03-18T03:15:42.662Z,33.40
2019-03-18T03:18:32.874Z,33.20
2019-03-18T03:21:18.946Z,33.60
2019-03-18T03:24:12.831Z,33.70
2019-03-18T03:26:51.115Z,33.80
2019-03-18T03:29:45.224Z,33.80
2019-03-18T03:32:43.365Z,33.70
2019-03-18T03:35:34.328Z,34.00
2019-03-18T03:38:14.982Z,34.20
2019-03-18T03:40:53.970Z,34.10
2019-03-18T03:43:32.256Z,34.10
2019-03-18T03:46:43.777Z,34.30
2019-03-18T03:49:17.178Z,34.70
2019-03-18T03:51:55.987Z,34.20
2019-03-18T03:54:34.422Z,34.20
2019-03-18T03:57:12.630Z,34.60
2019-03-18T03:59:51.070Z,34.50
2019-03-18T04:02:30.424Z,34.30
2019-03-18T04:05:08.522Z,34.30
2019-03-18T04:07:47.763Z,34.50
2019-03-18T04:10:26.260Z,34.70
2019-03-18T04:13:05.618Z,34.60
2019-03-18T04:15:44.258Z,34.80
2019-03-18T04:18:22.700Z,35.00
2019-03-18T04:21:00.602Z,35.00
2019-03-18T04:23:39.413Z,35.00
2019-03-18T04:26:18.655Z,34.90
2019-03-18T04:28:59.609Z,34.90
2019-03-18T04:31:37.420Z,34.90
2019-03-18T04:34:16.125Z,34.40
2019-03-18T04:36:54.698Z,34.70
2019-03-18T04:39:33.122Z,34.90
2019-03-18T04:42:11.389Z,35.10
2019-03-18T04:44:53.192Z,35.60
2019-03-18T04:47:31.553Z,35.70
2019-03-18T04:50:12.240Z,35.10
2019-03-18T04:52:51.898Z,35.00
2019-03-18T04:55:30.633Z,35.20
2019-03-18T04:58:08.659Z,35.70
2019-03-18T05:00:47.080Z,35.70
2019-03-18T05:03:25.542Z,35.40
2019-03-18T05:06:05.289Z,35.40
2019-03-18T05:08:46.204Z,34.80
2019-03-18T05:11:24.722Z,34.80
2019-03-18T05:14:02.560Z,34.60
2019-03-18T05:16:41.792Z,34.80
2019-03-18T05:19:20.248Z,35.00
2019-03-18T05:21:58.750Z,34.70
2019-03-18T05:24:36.972Z,34.90
2019-03-18T05:27:15.326Z,34.70
2019-03-18T05:29:55.647Z,34.50
2019-03-18T05:32:34.838Z,34.60
2019-03-18T05:35:14.977Z,34.90
2019-03-18T05:37:54.877Z,35.00
2019-03-18T05:40:33.252Z,35.00
2019-03-18T05:43:12.141Z,35.30
2019-03-18T05:45:50.145Z,35.50
2019-03-18T05:48:28.588Z,35.70
2019-03-18T05:51:08.062Z,35.60
2019-03-18T05:53:46.384Z,35.70
2019-03-18T05:56:24.576Z,35.80
2019-03-18T05:59:03.525Z,35.40
2019-03-18T06:02:13.366Z,35.00
2019-03-18T06:08:11.840Z,35.20
2019-03-18T06:25:59.344Z,35.60
2019-03-18T06:28:40.249Z,34.80
2019-03-18T06:31:21.159Z,34.90
2019-03-18T06:33:58.865Z,34.70
2019-03-18T06:36:40.991Z,35.00
2019-03-18T06:39:19.525Z,35.40
2019-03-18T06:41:58.075Z,35.50
2019-03-18T06:44:36.069Z,35.10
2019-03-18T06:47:15.073Z,34.90
2019-03-18T06:49:52.745Z,35.00
2019-03-18T06:52:30.831Z,35.10
2019-03-18T06:55:09.057Z,35.00
2019-03-18T06:57:48.663Z,34.70
2019-03-18T07:00:30.185Z,34.60
2019-03-18T07:03:08.836Z,34.80
2019-03-18T07:05:48.044Z,34.70
2019-03-18T07:08:30.168Z,34.20
2019-03-18T07:11:08.402Z,34.30
2019-03-18T07:13:48.114Z,34.50
2019-03-18T07:16:28.020Z,34.70
2019-03-18T07:19:06.629Z,34.80
2019-03-18T07:21:46.117Z,34.60
2019-03-18T07:24:25.491Z,34.50
2019-03-18T07:27:07.027Z,34.30
2019-03-18T07:29:48.935Z,34.00
2019-03-18T07:32:29.875Z,34.20
2019-03-18T07:35:07.511Z,34.00
2019-03-18T07:37:45.655Z,34.00
2019-03-18T07:40:25.016Z,33.70
2019-03-18T07:43:02.936Z,33.90
2019-03-18T07:45:40.625Z,33.70
2019-03-18T07:48:30.927Z,33.70
2019-03-18T07:51:04.196Z,33.40
2019-03-18T07:53:42.182Z,33.60
2019-03-18T07:56:20.555Z,33.90
2019-03-18T07:59:00.330Z,33.50
2019-03-18T08:01:38.861Z,33.20
2019-03-18T08:04:18.692Z,33.10
2019-03-18T08:06:57.153Z,33.50
2019-03-18T08:09:34.924Z,33.40
2019-03-18T08:12:16.698Z,33.70
2019-03-18T08:15:02.359Z,33.70
2019-03-18T08:17:41.697Z,33.50
2019-03-18T08:20:20.178Z,33.20
2019-03-18T08:23:00.112Z,32.90
2019-03-18T08:25:38.911Z,33.00
2019-03-18T08:28:19.679Z,33.10
2019-03-18T08:30:58.867Z,33.20
2019-03-18T08:33:37.944Z,33.00
2019-03-18T08:36:18.463Z,33.00
2019-03-18T08:38:57.098Z,32.80
2019-03-18T08:41:35.611Z,32.90
2019-03-18T08:44:14.825Z,32.80
2019-03-18T08:46:52.569Z,33.10
2019-03-18T08:49:33.318Z,33.00
2019-03-18T08:52:14.791Z,33.00
2019-03-18T08:54:55.399Z,32.90
2019-03-18T08:57:33.256Z,32.40
2019-03-18T09:00:12.578Z,32.30
2019-03-18T09:02:50.615Z,32.60
2019-03-18T09:05:30.334Z,32.80
2019-03-18T09:08:09.242Z,32.60
2019-03-18T09:10:49.215Z,32.50
2019-03-18T09:13:27.365Z,32.30
2019-03-18T09:16:06.644Z,32.30
2019-03-18T09:18:44.328Z,32.00
2019-03-18T09:21:23.383Z,32.20
2019-03-18T09:24:01.930Z,32.30
2019-03-18T09:26:42.820Z,32.30
2019-03-18T09:29:22.781Z,32.10
2019-03-18T09:32:01.207Z,32.30
2019-03-18T09:34:41.377Z,32.60
2019-03-18T09:37:21.426Z,32.60
2019-03-18T09:40:07.001Z,32.40
2019-03-18T09:42:45.522Z,32.30
2019-03-18T09:45:30.518Z,32.50
2019-03-18T09:48:08.903Z,32.50
2019-03-18T09:50:51.834Z,32.30
2019-03-18T09:53:30.914Z,32.10
2019-03-18T09:56:09.128Z,32.00
2019-03-18T09:58:50.116Z,32.10
2019-03-18T10:01:46.533Z,31.80
2019-03-18T10:04:26.311Z,31.90
2019-03-18T10:07:07.411Z,31.80
2019-03-18T10:09:46.283Z,32.10
2019-03-18T10:12:25.652Z,32.00
2019-03-18T10:15:03.459Z,31.90
2019-03-18T10:17:41.499Z,31.70
2019-03-18T10:20:20.035Z,31.90
2019-03-18T10:22:58.799Z,31.60
2019-03-18T10:25:36.511Z,31.40
2019-03-18T10:28:16.529Z,31.30
2019-03-18T10:30:54.631Z,31.30
2019-03-18T10:33:33.557Z,31.30
2019-03-18T10:36:11.492Z,31.30
2019-03-18T10:38:52.523Z,31.40
2019-03-18T10:41:30.896Z,31.30
2019-03-18T10:44:09.841Z,31.30
2019-03-18T10:46:47.745Z,31.30
2019-03-18T10:49:26.288Z,31.40
2019-03-18T10:52:05.916Z,31.40
2019-03-18T10:54:44.121Z,30.90
2019-03-18T10:57:22.942Z,31.00
2019-03-18T11:00:01.453Z,31.00
2019-03-18T11:02:44.661Z,30.90
2019-03-18T11:05:22.979Z,30.70
2019-03-18T11:08:01.185Z,30.60
2019-03-18T11:10:39.405Z,30.80
2019-03-18T11:13:18.072Z,30.90
2019-03-18T11:15:57.917Z,30.80
2019-03-18T11:18:36.157Z,30.60
2019-03-18T11:21:15.353Z,30.60
2019-03-18T11:23:55.617Z,30.60
2019-03-18T11:26:34.209Z,30.50
2019-03-18T11:29:12.868Z,30.50
2019-03-18T11:31:50.991Z,30.50
2019-03-18T11:34:30.095Z,30.50
2019-03-18T11:37:10.770Z,30.60
2019-03-18T11:39:50.517Z,30.70
2019-03-18T11:42:28.225Z,30.60
2019-03-18T11:45:08.195Z,30.40
2019-03-18T11:47:47.685Z,30.40
2019-03-18T11:50:26.376Z,30.30
2019-03-18T11:53:13.820Z,30.30
2019-03-18T11:55:44.461Z,30.30
2019-03-18T11:58:22.648Z,30.20
2019-03-18T12:01:03.217Z,30.30
2019-03-18T12:03:41.065Z,30.20
2019-03-18T12:06:22.395Z,30.10
2019-03-18T12:09:02.005Z,30.20
2019-03-18T12:11:42.317Z,30.30
2019-03-18T12:14:22.711Z,30.30
2019-03-18T12:17:01.517Z,30.20
2019-03-18T12:19:41.684Z,30.00
2019-03-18T12:22:20.108Z,30.10
2019-03-18T12:25:01.426Z,30.20
2019-03-18T12:27:40.128Z,30.10
2019-03-18T12:30:22.294Z,30.10
2019-03-18T12:33:00.070Z,30.20
2019-03-18T12:35:39.896Z,30.10
2019-03-18T12:38:19.399Z,30.10
2019-03-18T12:40:57.301Z,29.90
2019-03-18T12:43:37.897Z,30.00
2019-03-18T12:46:17.684Z,30.00
2019-03-18T12:48:56.554Z,30.00
2019-03-18T12:51:39.926Z,29.90
2019-03-18T12:54:20.232Z,30.00
2019-03-18T12:57:00.433Z,30.10
2019-03-18T12:59:39.891Z,30.20
2019-03-18T13:02:18.112Z,30.10
2019-03-18T13:04:56.507Z,30.00
2019-03-18T13:07:34.039Z,30.20
2019-03-18T13:10:21.386Z,30.20
2019-03-18T13:12:59.984Z,30.30
2019-03-18T13:15:39.249Z,30.20
2019-03-18T13:18:18.215Z,30.40
2019-03-18T13:21:07.273Z,30.30
2019-03-18T13:23:42.181Z,30.40
2019-03-18T13:26:24.724Z,30.10
2019-03-18T13:29:07.044Z,30.30
2019-03-18T13:31:53.228Z,30.40
2019-03-18T13:34:36.757Z,30.30
2019-03-18T13:37:18.981Z,30.10
2019-03-18T13:39:56.630Z,30.10
2019-03-18T13:42:35.513Z,30.10
2019-03-18T13:45:15.602Z,30.30
2019-03-18T13:47:54.645Z,30.20
2019-03-18T13:50:32.743Z,30.10
2019-03-18T13:53:12.708Z,30.20
2019-03-18T13:55:55.005Z,30.10
2019-03-18T13:58:33.467Z,30.10
2019-03-18T14:01:14.198Z,30.10
2019-03-18T14:03:52.701Z,30.20
2019-03-18T14:06:31.666Z,30.10
2019-03-18T14:09:11.918Z,30.10
2019-03-18T14:11:50.130Z,30.00
2019-03-18T14:14:32.150Z,30.10
2019-03-18T14:17:10.200Z,30.30
2019-03-18T14:19:52.507Z,30.30
2019-03-18T14:22:28.513Z,30.10
2019-03-18T14:25:14.510Z,29.90
2019-03-18T14:27:53.319Z,30.00
2019-03-18T14:30:34.328Z,30.30
2019-03-18T14:33:13.073Z,30.30
2019-03-18T14:35:52.991Z,30.20
2019-03-18T14:38:31.948Z,30.10
2019-03-18T14:41:10.216Z,30.20
2019-03-18T14:43:48.357Z,30.20
2019-03-18T14:46:28.867Z,30.20
2019-03-18T14:49:10.103Z,30.20
2019-03-18T14:51:48.530Z,30.10
2019-03-18T14:54:29.909Z,30.10
2019-03-18T14:57:13.574Z,30.20
2019-03-18T14:59:53.911Z,30.00
2019-03-18T15:02:31.674Z,29.90
2019-03-18T15:05:11.512Z,30.10
2019-03-18T15:07:51.109Z,30.10
2019-03-18T15:10:31.992Z,30.10
2019-03-18T15:13:30.310Z,29.90
2019-03-18T15:16:00.789Z,29.90
2019-03-18T15:18:39.583Z,30.10
2019-03-18T15:21:17.773Z,30.10
2019-03-18T15:23:58.340Z,29.90
2019-03-18T15:26:35.355Z,29.90
2019-03-18T15:29:15.765Z,30.00
2019-03-18T15:32:00.740Z,30.00
2019-03-18T15:34:39.102Z,29.80
2019-03-18T15:37:20.658Z,29.80
2019-03-18T15:40:00.026Z,29.80
2019-03-18T15:42:39.579Z,29.90
2019-03-18T15:45:18.612Z,29.70
2019-03-18T15:47:56.901Z,29.60
2019-03-18T15:50:35.365Z,29.70
2019-03-18T15:53:14.787Z,29.80
2019-03-18T15:55:56.332Z,30.10
2019-03-18T15:58:34.202Z,30.10
2019-03-18T16:01:13.587Z,30.00
2019-03-18T16:03:53.799Z,29.90
2019-03-18T16:06:33.222Z,30.10
2019-03-18T16:09:12.502Z,29.90
2019-03-18T16:11:52.086Z,29.80
2019-03-18T16:14:30.569Z,29.80
2019-03-18T16:17:10.853Z,29.90
2019-03-18T16:19:49.164Z,29.70
2019-03-18T16:22:28.405Z,29.70
2019-03-18T16:25:07.034Z,29.70
2019-03-18T16:27:45.222Z,29.80
2019-03-18T16:30:23.566Z,29.60
2019-03-18T16:33:03.329Z,29.60
2019-03-18T16:35:46.105Z,29.60
2019-03-18T16:38:24.039Z,29.70
2019-03-18T16:41:06.461Z,29.60
2019-03-18T16:43:45.636Z,29.70
2019-03-18T16:46:24.120Z,29.60
2019-03-18T16:49:04.378Z,29.60
2019-03-18T16:51:43.792Z,29.60
2019-03-18T16:54:23.859Z,29.60
2019-03-18T16:57:01.803Z,29.60
2019-03-18T16:59:40.092Z,29.60
2019-03-18T17:02:17.988Z,29.60
2019-03-18T17:04:57.724Z,29.90
2019-03-18T17:07:40.821Z,29.70
2019-03-18T17:10:18.994Z,29.60
2019-03-18T17:12:57.438Z,29.80
2019-03-18T17:15:36.042Z,29.80
2019-03-18T17:18:14.126Z,29.60
2019-03-18T17:20:51.972Z,29.50
2019-03-18T17:23:30.164Z,29.50
2019-03-18T17:26:09.359Z,29.70
2019-03-18T17:28:47.444Z,29.60
2019-03-18T17:31:25.250Z,29.50
2019-03-18T17:34:03.169Z,29.50
2019-03-18T17:36:42.201Z,29.50
2019-03-18T17:39:38.155Z,29.70
2019-03-18T17:42:18.513Z,29.80
2019-03-18T17:44:58.700Z,29.70
2019-03-18T17:47:37.617Z,29.70
2019-03-18T17:50:20.609Z,29.90
2019-03-18T17:53:16.303Z,29.90
2019-03-18T17:55:55.287Z,29.80
2019-03-18T17:58:34.833Z,29.60
2019-03-18T18:01:15.370Z,29.50
2019-03-18T18:03:54.130Z,29.40
2019-03-18T18:06:31.804Z,29.40
2019-03-18T18:09:12.087Z,29.30
2019-03-18T18:11:52.228Z,29.80
2019-03-18T18:14:31.877Z,29.80
2019-03-18T18:17:11.866Z,29.50
2019-03-18T18:19:52.204Z,29.50
2019-03-18T18:22:31.650Z,29.60
2019-03-18T18:25:11.445Z,29.70
2019-03-18T18:27:54.812Z,29.70
2019-03-18T18:30:36.153Z,29.50
2019-03-18T18:33:15.024Z,29.60
2019-03-18T18:35:56.203Z,29.60
2019-03-18T18:38:34.135Z,29.60
2019-03-18T18:41:13.181Z,29.50
2019-03-18T18:43:53.639Z,29.50
2019-03-18T18:46:32.514Z,29.40
2019-03-18T18:49:10.271Z,29.30
2019-03-18T18:51:49.685Z,29.40
2019-03-18T18:54:27.399Z,29.60
2019-03-18T18:57:05.932Z,29.60
2019-03-18T18:59:44.088Z,29.30
2019-03-18T19:02:25.859Z,29.20
2019-03-18T19:05:03.937Z,29.30
2019-03-18T19:07:43.541Z,29.30
2019-03-18T19:10:21.678Z,29.30
2019-03-18T19:13:00.739Z,29.10
2019-03-18T19:15:40.843Z,29.20
2019-03-18T19:18:19.769Z,29.30
2019-03-18T19:20:58.066Z,29.50
2019-03-18T19:23:37.956Z,29.40
2019-03-18T19:26:16.410Z,29.20
2019-03-18T19:28:54.217Z,29.30
2019-03-18T19:31:32.928Z,29.30
2019-03-18T19:34:11.812Z,29.30
2019-03-18T19:36:49.924Z,29.20
2019-03-18T19:39:30.358Z,29.10
2019-03-18T19:42:07.656Z,29.20
2019-03-18T19:44:46.656Z,29.30
2019-03-18T19:47:26.253Z,29.30
2019-03-18T19:50:06.147Z,29.20
2019-03-18T19:52:44.604Z,29.20
2019-03-18T19:55:27.136Z,29.40
2019-03-18T19:58:05.629Z,29.50
2019-03-18T20:00:43.258Z,29.50
2019-03-18T20:03:21.727Z,29.20
2019-03-18T20:06:03.201Z,29.00
2019-03-18T20:08:41.460Z,29.10
2019-03-18T20:11:22.076Z,29.20
2019-03-18T20:14:00.423Z,29.30
2019-03-18T20:16:39.580Z,29.10
2019-03-18T20:19:22.210Z,29.00
2019-03-18T20:22:02.923Z,29.20
2019-03-18T20:24:44.358Z,29.40
2019-03-18T20:27:24.206Z,29.30
2019-03-18T20:30:05.133Z,29.20
2019-03-18T20:32:43.493Z,29.20
2019-03-18T20:35:21.624Z,29.40
2019-03-18T20:38:01.129Z,29.50
2019-03-18T20:40:39.969Z,29.50
2019-03-18T20:43:21.150Z,29.20
2019-03-18T20:46:01.019Z,29.40
2019-03-18T20:48:39.652Z,29.50
2019-03-18T20:51:18.332Z,29.50
2019-03-18T20:53:56.477Z,29.30
2019-03-18T20:56:34.402Z,29.20
2019-03-18T20:59:14.990Z,29.10
2019-03-18T21:01:55.367Z,29.20
2019-03-18T21:04:35.089Z,29.20
2019-03-18T21:07:12.753Z,29.10
2019-03-18T21:09:52.585Z,29.10
2019-03-18T21:12:35.241Z,29.10
2019-03-18T21:15:47.394Z,29.20
2019-03-18T21:18:30.651Z,29.30
2019-03-18T21:21:08.804Z,29.30
2019-03-18T21:23:48.205Z,29.10
2019-03-18T21:26:26.788Z,29.30
2019-03-18T21:29:04.861Z,29.30
2019-03-18T21:31:42.713Z,29.40
2019-03-18T21:34:20.196Z,29.20
2019-03-18T21:36:58.227Z,29.20
2019-03-18T21:39:37.867Z,29.40
2019-03-18T21:42:19.731Z,29.60
2019-03-18T21:44:58.947Z,29.40
2019-03-18T21:47:38.606Z,29.10
2019-03-18T21:50:17.437Z,29.10
2019-03-18T21:52:58.102Z,29.20
2019-03-18T21:55:37.642Z,29.10
2019-03-18T21:58:16.086Z,29.00
2019-03-18T22:00:53.862Z,29.00
2019-03-18T22:03:32.651Z,29.10
2019-03-18T22:06:11.437Z,29.20
2019-03-18T22:08:50.271Z,29.10
2019-03-18T22:11:28.214Z,28.90
2019-03-18T22:14:06.659Z,28.90
2019-03-18T22:16:46.627Z,29.00
2019-03-18T22:19:25.213Z,29.10
2019-03-18T22:22:03.983Z,29.10
2019-03-18T22:24:45.478Z,29.00
2019-03-18T22:27:23.355Z,29.00
2019-03-18T22:30:02.222Z,29.00
2019-03-18T22:32:41.286Z,29.00
2019-03-18T22:35:22.431Z,29.00
2019-03-18T22:38:02.981Z,29.20
2019-03-18T22:40:42.028Z,29.30
2019-03-18T22:43:21.300Z,29.20
2019-03-18T22:46:01.437Z,29.00
2019-03-18T22:48:40.846Z,29.10
2019-03-18T22:51:20.542Z,29.10
2019-03-18T22:54:03.070Z,29.10
2019-03-18T22:56:42.108Z,29.00
2019-03-18T22:59:22.522Z,28.80
2019-03-18T23:02:01.418Z,29.00
2019-03-18T23:04:39.807Z,29.10
2019-03-18T23:07:17.811Z,29.20
2019-03-18T23:09:55.891Z,29.00
2019-03-18T23:12:34.512Z,29.00
2019-03-18T23:15:14.131Z,29.10
2019-03-18T23:17:53.605Z,29.10
2019-03-18T23:20:31.732Z,29.00
2019-03-18T23:23:09.990Z,28.80
2019-03-18T23:25:49.254Z,29.00
2019-03-18T23:28:28.881Z,29.10
2019-03-18T23:31:08.272Z,29.10
2019-03-18T23:33:46.679Z,29.00
2019-03-18T23:36:25.457Z,29.10
2019-03-18T23:39:04.017Z,29.10
2019-03-18T23:41:43.010Z,29.20
2019-03-18T23:44:21.077Z,29.00
2019-03-18T23:47:01.319Z,29.10
2019-03-18T23:49:42.011Z,29.20
2019-03-18T23:52:22.905Z,29.40
2019-03-18T23:54:59.907Z,29.30
2019-03-18T23:57:37.730Z,29.30
